createdAt,value
2018-05-10T00:00:24.129Z,99630.13
2018-05-10T00:01:26.631Z,99625.56
2018-05-10T00:02:29.140Z,99626.77
2018-05-10T00:03:31.604Z,99630.52
2018-05-10T00:04:34.104Z,99632.90
2018-05-10T00:05:36.607Z,99629.73
2018-05-10T00:06:39.111Z,99628.15
2018-05-10T00:07:41.638Z,99625.97
2018-05-10T00:08:44.121Z,99626.95
2018-05-10T00:09:46.604Z,99629.73
2018-05-10T00:10:49.099Z,99619.44
2018-05-10T00:11:51.612Z,99626.95
2018-05-10T00:12:54.174Z,99624.58
2018-05-10T00:13:56.657Z,99621.01
2018-05-10T00:14:59.140Z,99624.58
2018-05-10T00:16:01.629Z,99626.36
2018-05-10T00:17:04.103Z,99624.77
2018-05-10T00:18:06.619Z,99627.35
2018-05-10T00:19:09.086Z,99628.73
2018-05-10T00:20:11.581Z,99625.56
2018-05-10T00:21:14.080Z,99635.27
2018-05-10T00:22:16.581Z,99636.27
2018-05-10T00:23:19.081Z,99642.20
2018-05-10T00:24:21.604Z,99633.48
2018-05-10T00:25:24.058Z,99638.44
2018-05-10T00:26:26.527Z,99634.87
2018-05-10T00:27:28.991Z,99637.25
2018-05-10T00:28:31.476Z,99637.45
2018-05-10T00:29:33.947Z,99642.20
2018-05-10T00:30:36.433Z,99636.85
2018-05-10T00:31:38.922Z,99638.05
2018-05-10T00:32:41.391Z,99640.81
2018-05-10T00:33:43.911Z,99641.01
2018-05-10T00:34:46.415Z,99639.03
2018-05-10T00:35:48.889Z,99638.63
2018-05-10T00:36:51.375Z,99631.70
2018-05-10T00:37:53.878Z,99641.81
2018-05-10T00:38:56.367Z,99635.86
2018-05-10T00:39:58.864Z,99641.81
2018-05-10T00:41:01.372Z,99643.20
2018-05-10T00:42:03.863Z,99638.63
2018-05-10T00:43:06.327Z,99644.19
2018-05-10T00:44:08.825Z,99646.95
2018-05-10T00:45:11.346Z,99648.34
2018-05-10T00:46:13.836Z,99648.34
2018-05-10T00:47:16.298Z,99646.16
2018-05-10T00:48:18.761Z,99650.72
2018-05-10T00:49:21.265Z,99647.94
2018-05-10T00:50:23.735Z,99653.89
2018-05-10T00:51:26.236Z,99656.66
2018-05-10T00:52:28.736Z,99658.05
2018-05-10T00:53:31.221Z,99656.84
2018-05-10T00:54:45.629Z,99660.81
2018-05-10T00:55:48.098Z,99660.42
2018-05-10T00:56:50.578Z,99664.58
2018-05-10T00:57:53.065Z,99666.95
2018-05-10T00:58:55.625Z,99661.01
2018-05-10T00:59:58.140Z,99657.65
2018-05-10T01:01:00.630Z,99657.84
2018-05-10T01:02:03.117Z,99654.08
2018-05-10T01:03:07.457Z,99652.69
2018-05-10T01:04:09.983Z,99656.45
2018-05-10T01:05:12.489Z,99658.64
2018-05-10T01:06:14.996Z,99663.78
2018-05-10T01:07:17.478Z,99661.41
2018-05-10T01:08:19.975Z,99665.17
2018-05-10T01:09:22.458Z,99661.01
2018-05-10T01:10:24.945Z,99659.63
2018-05-10T01:11:27.456Z,99661.01
2018-05-10T01:12:29.941Z,99661.01
2018-05-10T01:13:32.429Z,99657.25
2018-05-10T01:14:34.909Z,99654.67
2018-05-10T01:15:37.426Z,99662.39
2018-05-10T01:16:39.932Z,99657.84
2018-05-10T01:17:42.445Z,99660.61
2018-05-10T01:18:44.947Z,99662.00
2018-05-10T01:19:47.464Z,99666.16
2018-05-10T01:20:50.023Z,99665.76
2018-05-10T01:21:52.435Z,99660.22
2018-05-10T01:22:54.917Z,99669.12
2018-05-10T01:23:57.416Z,99670.31
2018-05-10T01:24:59.911Z,99670.31
2018-05-10T01:26:02.436Z,99669.73
2018-05-10T01:27:04.944Z,99676.84
2018-05-10T01:28:07.418Z,99673.89
2018-05-10T01:29:09.921Z,99672.10
2018-05-10T01:30:12.412Z,99672.69
2018-05-10T01:31:14.912Z,99668.53
2018-05-10T01:32:17.380Z,99669.92
2018-05-10T01:33:19.862Z,99669.52
2018-05-10T01:34:22.329Z,99667.73
2018-05-10T01:35:36.614Z,99668.13
2018-05-10T01:36:39.119Z,99668.13
2018-05-10T01:37:41.634Z,99664.17
2018-05-10T01:38:44.110Z,99664.56
2018-05-10T01:39:46.608Z,99664.17
2018-05-10T01:40:49.075Z,99665.55
2018-05-10T01:41:51.576Z,99668.13
2018-05-10T01:42:54.065Z,99668.33
2018-05-10T01:43:56.557Z,99668.52
2018-05-10T01:44:59.055Z,99671.69
2018-05-10T01:46:01.544Z,99678.63
2018-05-10T01:47:04.026Z,99677.23
2018-05-10T01:48:06.519Z,99678.22
2018-05-10T01:49:08.993Z,99680.99
2018-05-10T01:50:11.467Z,99683.58
2018-05-10T01:51:13.930Z,99681.80
2018-05-10T01:52:16.456Z,99675.84
2018-05-10T01:53:18.941Z,99680.01
2018-05-10T01:54:21.433Z,99682.19
2018-05-10T01:55:23.937Z,99683.37
2018-05-10T01:56:26.425Z,99684.75
2018-05-10T01:57:28.962Z,99683.37
2018-05-10T01:58:31.443Z,99679.80
2018-05-10T01:59:33.944Z,99682.78
2018-05-10T02:00:36.414Z,99684.17
2018-05-10T02:01:38.883Z,99692.88
2018-05-10T02:02:41.389Z,99691.09
2018-05-10T02:03:43.914Z,99686.73
2018-05-10T02:04:46.409Z,99689.50
2018-05-10T02:05:48.916Z,99693.47
2018-05-10T02:06:51.442Z,99694.06
2018-05-10T02:07:53.950Z,99697.23
2018-05-10T02:08:56.433Z,99695.05
2018-05-10T02:09:58.894Z,99690.89
2018-05-10T02:11:01.389Z,99696.44
2018-05-10T02:12:03.892Z,99694.25
2018-05-10T02:13:06.397Z,99695.84
2018-05-10T02:14:08.928Z,99691.88
2018-05-10T02:15:11.402Z,99691.48
2018-05-10T02:16:13.961Z,99698.22
2018-05-10T02:17:16.451Z,99692.28
2018-05-10T02:18:19.036Z,99694.66
2018-05-10T02:19:21.531Z,99690.49
2018-05-10T02:20:24.039Z,99697.42
2018-05-10T02:21:26.507Z,99698.02
2018-05-10T02:22:28.989Z,99693.45
2018-05-10T02:23:31.493Z,99698.41
2018-05-10T02:24:34.006Z,99700.39
2018-05-10T02:25:36.556Z,99696.63
2018-05-10T02:26:39.051Z,99695.24
2018-05-10T02:27:41.518Z,99705.14
2018-05-10T02:28:44.032Z,99699.00
2018-05-10T02:29:46.527Z,99694.44
2018-05-10T02:30:49.025Z,99693.05
2018-05-10T02:31:51.519Z,99699.99
2018-05-10T02:32:54.013Z,99702.37
2018-05-10T02:33:56.523Z,99702.37
2018-05-10T02:34:59.025Z,99701.38
2018-05-10T02:36:01.513Z,99709.30
2018-05-10T02:37:04.023Z,99707.51
2018-05-10T02:38:06.544Z,99707.11
2018-05-10T02:39:09.070Z,99713.45
2018-05-10T02:40:11.559Z,99715.83
2018-05-10T02:41:14.041Z,99711.86
2018-05-10T02:42:16.513Z,99714.05
2018-05-10T02:43:19.062Z,99715.83
2018-05-10T02:44:21.524Z,99726.92
2018-05-10T02:45:24.010Z,99724.15
2018-05-10T02:46:26.507Z,99727.31
2018-05-10T02:47:29.086Z,99733.85
2018-05-10T02:48:31.569Z,99726.92
2018-05-10T02:49:34.087Z,99726.52
2018-05-10T02:50:36.607Z,99729.69
2018-05-10T02:51:39.121Z,99728.50
2018-05-10T02:52:41.610Z,99731.67
2018-05-10T02:53:44.111Z,99731.67
2018-05-10T02:54:46.602Z,99728.50
2018-05-10T02:55:49.089Z,99729.88
2018-05-10T02:56:51.594Z,99729.88
2018-05-10T02:57:54.077Z,99728.89
2018-05-10T02:58:56.558Z,99729.09
2018-05-10T02:59:59.061Z,99726.31
2018-05-10T03:01:01.540Z,99730.28
2018-05-10T03:02:04.056Z,99737.41
2018-05-10T03:03:06.553Z,99731.86
2018-05-10T03:04:09.041Z,99736.02
2018-05-10T03:05:11.532Z,99734.23
2018-05-10T03:06:14.017Z,99739.38
2018-05-10T03:07:16.517Z,99736.41
2018-05-10T03:08:19.024Z,99737.00
2018-05-10T03:09:21.513Z,99738.98
2018-05-10T03:10:24.003Z,99737.20
2018-05-10T03:11:26.503Z,99732.61
2018-05-10T03:12:29.000Z,99734.83
2018-05-10T03:13:31.470Z,99735.38
2018-05-10T03:14:33.961Z,99734.83
2018-05-10T03:15:36.466Z,99735.38
2018-05-10T03:16:38.986Z,99742.74
2018-05-10T03:17:41.500Z,99743.94
2018-05-10T03:18:43.989Z,99740.92
2018-05-10T03:19:46.455Z,99741.91
2018-05-10T03:20:48.957Z,99741.36
2018-05-10T03:21:51.456Z,99742.31
2018-05-10T03:22:53.977Z,99742.74
2018-05-10T03:23:56.465Z,99746.47
2018-05-10T03:24:58.930Z,99740.53
2018-05-10T03:26:01.419Z,99743.70
2018-05-10T03:27:03.900Z,99749.67
2018-05-10T03:28:06.367Z,99752.02
2018-05-10T03:29:08.830Z,99748.84
2018-05-10T03:30:11.327Z,99747.06
2018-05-10T03:31:13.833Z,99751.22
2018-05-10T03:32:16.317Z,99753.00
2018-05-10T03:33:18.850Z,99750.23
2018-05-10T03:34:21.316Z,99755.97
2018-05-10T03:35:23.797Z,99762.31
2018-05-10T03:36:26.306Z,99761.32
2018-05-10T03:37:28.811Z,99757.75
2018-05-10T03:38:31.299Z,99756.77
2018-05-10T03:39:33.938Z,99752.61
2018-05-10T03:40:36.446Z,99759.53
2018-05-10T03:41:38.967Z,99751.81
2018-05-10T03:42:41.468Z,99757.35
2018-05-10T03:43:43.970Z,99760.13
2018-05-10T03:44:46.455Z,99756.55
2018-05-10T03:45:48.922Z,99757.55
2018-05-10T03:46:51.421Z,99759.33
2018-05-10T03:47:53.907Z,99756.95
2018-05-10T03:48:56.390Z,99759.91
2018-05-10T03:49:58.855Z,99757.94
2018-05-10T03:51:01.318Z,99759.91
2018-05-10T03:52:03.808Z,99757.55
2018-05-10T03:53:06.292Z,99762.69
2018-05-10T03:54:08.753Z,99762.29
2018-05-10T03:55:11.241Z,99760.11
2018-05-10T03:56:13.718Z,99762.29
2018-05-10T03:57:16.228Z,99767.84
2018-05-10T03:58:18.708Z,99770.20
2018-05-10T03:59:21.207Z,99767.04
2018-05-10T04:00:23.711Z,99770.20
2018-05-10T04:01:26.186Z,99774.77
2018-05-10T04:02:40.631Z,99772.98
2018-05-10T04:03:55.056Z,99774.16
2018-05-10T04:05:09.436Z,99775.15
2018-05-10T04:08:02.662Z,99788.23
2018-05-10T04:09:17.008Z,99786.05
2018-05-10T04:11:55.361Z,99791.38
2018-05-10T04:12:57.859Z,99792.77
2018-05-10T04:14:00.381Z,99800.29
2018-05-10T04:15:02.884Z,99798.91
2018-05-10T04:16:05.459Z,99802.08
2018-05-10T04:17:07.946Z,99799.09
2018-05-10T04:18:10.415Z,99807.41
2018-05-10T04:19:13.453Z,99807.41
2018-05-10T04:20:15.940Z,99800.08
2018-05-10T04:21:18.430Z,99809.78
2018-05-10T04:22:20.943Z,99800.88
2018-05-10T04:23:23.410Z,99807.41
2018-05-10T04:24:25.890Z,99812.55
2018-05-10T04:25:28.373Z,99811.17
2018-05-10T04:26:30.951Z,99816.13
2018-05-10T04:27:33.441Z,99808.39
2018-05-10T04:28:35.931Z,99813.14
2018-05-10T04:29:38.432Z,99809.38
2018-05-10T04:30:40.898Z,99809.78
2018-05-10T04:31:43.402Z,99814.53
2018-05-10T04:32:45.890Z,99820.47
2018-05-10T04:33:48.380Z,99814.53
2018-05-10T04:34:50.908Z,99818.09
2018-05-10T04:35:53.493Z,99813.14
2018-05-10T04:36:55.904Z,99819.09
2018-05-10T04:37:58.393Z,99824.63
2018-05-10T04:39:00.881Z,99830.58
2018-05-10T04:40:03.404Z,99828.39
2018-05-10T04:41:05.871Z,99826.42
2018-05-10T04:42:08.395Z,99826.81
2018-05-10T04:43:10.854Z,99829.59
2018-05-10T04:44:13.326Z,99832.55
2018-05-10T04:45:15.828Z,99828.20
2018-05-10T04:46:18.327Z,99837.51
2018-05-10T04:47:20.823Z,99836.71
2018-05-10T04:48:23.295Z,99835.13
2018-05-10T04:49:25.795Z,99840.87
2018-05-10T04:50:28.418Z,99833.94
2018-05-10T04:51:30.897Z,99836.13
2018-05-10T04:52:33.431Z,99840.28
2018-05-10T04:53:35.915Z,99834.92
2018-05-10T04:54:38.448Z,99843.64
2018-05-10T04:55:40.954Z,99846.81
2018-05-10T04:56:43.433Z,99850.17
2018-05-10T04:57:45.926Z,99851.16
2018-05-10T04:58:48.426Z,99849.77
2018-05-10T04:59:50.904Z,99852.55
2018-05-10T05:00:53.390Z,99860.47
2018-05-10T05:01:55.873Z,99856.12
2018-05-10T05:02:58.355Z,99851.34
2018-05-10T05:04:00.838Z,99854.52
2018-05-10T05:05:03.310Z,99855.91
2018-05-10T05:06:05.816Z,99856.30
2018-05-10T05:07:08.300Z,99860.06
2018-05-10T05:08:10.767Z,99851.75
2018-05-10T05:09:13.238Z,99862.04
2018-05-10T05:10:15.723Z,99856.89
2018-05-10T05:11:18.235Z,99862.84
2018-05-10T05:12:20.727Z,99851.34
2018-05-10T05:13:23.223Z,99862.04
2018-05-10T05:14:25.709Z,99860.66
2018-05-10T05:15:28.195Z,99861.05
2018-05-10T05:16:30.731Z,99857.08
2018-05-10T05:17:33.220Z,99864.02
2018-05-10T05:18:35.723Z,99867.77
2018-05-10T05:19:38.213Z,99865.40
2018-05-10T05:20:40.706Z,99865.80
2018-05-10T05:21:43.209Z,99867.19
2018-05-10T05:22:45.699Z,99869.56
2018-05-10T05:23:48.181Z,99869.16
2018-05-10T05:24:50.651Z,99873.31
2018-05-10T05:25:53.139Z,99871.53
2018-05-10T05:26:55.650Z,99871.13
2018-05-10T05:27:58.127Z,99871.93
2018-05-10T05:29:00.614Z,99873.91
2018-05-10T05:30:03.098Z,99875.69
2018-05-10T05:31:05.585Z,99871.13
2018-05-10T05:32:08.115Z,99872.12
2018-05-10T05:33:10.597Z,99874.09
2018-05-10T05:34:13.072Z,99879.05
2018-05-10T05:35:15.551Z,99880.44
2018-05-10T05:36:18.045Z,99881.42
2018-05-10T05:37:20.531Z,99877.85
2018-05-10T05:38:23.013Z,99876.67
2018-05-10T05:39:25.498Z,99884.01
2018-05-10T05:40:28.007Z,99881.82
2018-05-10T05:41:30.494Z,99882.81
2018-05-10T05:42:33.001Z,99890.14
2018-05-10T05:43:35.591Z,99893.90
2018-05-10T05:44:38.013Z,99899.84
2018-05-10T05:45:40.516Z,99902.61
2018-05-10T05:46:43.001Z,99905.20
2018-05-10T05:47:45.487Z,99901.23
2018-05-10T05:48:47.994Z,99906.19
2018-05-10T05:49:50.462Z,99908.55
2018-05-10T05:50:52.927Z,99910.93
2018-05-10T05:51:55.409Z,99915.09
2018-05-10T05:52:57.904Z,99916.47
2018-05-10T05:54:00.485Z,99920.05
2018-05-10T05:55:03.017Z,99922.02
2018-05-10T05:56:05.488Z,99926.58
2018-05-10T05:57:07.968Z,99923.99
2018-05-10T05:58:10.477Z,99920.63
2018-05-10T05:59:13.627Z,99929.75
2018-05-10T06:00:16.131Z,99934.09
2018-05-10T06:01:18.614Z,99930.73
2018-05-10T06:02:21.115Z,99932.31
2018-05-10T06:03:23.630Z,99930.34
2018-05-10T06:04:26.135Z,99934.50
2018-05-10T06:05:28.626Z,99936.87
2018-05-10T06:06:31.112Z,99938.84
2018-05-10T06:07:33.601Z,99939.43
2018-05-10T06:08:36.177Z,99939.43
2018-05-10T06:09:38.598Z,99941.22
2018-05-10T06:10:41.085Z,99943.19
2018-05-10T06:11:43.566Z,99939.43
2018-05-10T06:12:46.049Z,99946.76
2018-05-10T06:13:48.555Z,99945.96
2018-05-10T06:14:51.023Z,99953.88
2018-05-10T06:15:53.514Z,99957.64
2018-05-10T06:16:56.038Z,99959.42
2018-05-10T06:17:58.521Z,99960.41
2018-05-10T06:19:01.028Z,99959.02
2018-05-10T06:20:03.502Z,99954.46
2018-05-10T06:21:06.015Z,99961.39
2018-05-10T06:22:08.506Z,99960.99
2018-05-10T06:23:11.004Z,99965.95
2018-05-10T06:24:13.506Z,99967.34
2018-05-10T06:25:16.080Z,99966.94
2018-05-10T06:26:18.477Z,99969.13
2018-05-10T06:27:20.966Z,99968.72
2018-05-10T06:28:23.467Z,99964.75
2018-05-10T06:29:25.988Z,99965.95
2018-05-10T06:30:28.473Z,99964.17
2018-05-10T06:31:30.949Z,99967.92
2018-05-10T06:32:33.413Z,99965.73
2018-05-10T06:33:35.905Z,99972.67
2018-05-10T06:34:38.429Z,99960.99
2018-05-10T06:35:40.914Z,99967.52
2018-05-10T06:36:43.400Z,99966.94
2018-05-10T06:37:45.880Z,99968.91
2018-05-10T06:38:48.362Z,99965.34
2018-05-10T06:39:50.842Z,99964.75
2018-05-10T06:40:53.314Z,99967.12
2018-05-10T06:41:55.800Z,99975.84
2018-05-10T06:42:58.266Z,99964.17
2018-05-10T06:44:00.731Z,99968.52
2018-05-10T06:45:03.353Z,99969.09
2018-05-10T06:46:05.832Z,99963.95
2018-05-10T06:47:08.303Z,99966.94
2018-05-10T06:48:10.785Z,99966.73
2018-05-10T06:49:13.268Z,99963.37
2018-05-10T06:50:15.808Z,99959.80
2018-05-10T06:51:18.293Z,99966.94
2018-05-10T06:52:20.761Z,99962.78
2018-05-10T06:53:23.235Z,99955.45
2018-05-10T06:54:25.721Z,99961.80
2018-05-10T06:55:28.244Z,99959.02
2018-05-10T06:56:30.755Z,99962.78
2018-05-10T06:57:33.258Z,99964.97
2018-05-10T06:58:35.745Z,99958.44
2018-05-10T06:59:38.233Z,99964.78
2018-05-10T07:00:40.759Z,99958.44
2018-05-10T07:01:43.289Z,99964.78
2018-05-10T07:02:45.775Z,99964.78
2018-05-10T07:03:48.335Z,99964.38
2018-05-10T07:04:50.839Z,99967.95
2018-05-10T07:05:53.425Z,99972.91
2018-05-10T07:06:55.928Z,99968.75
2018-05-10T07:07:58.434Z,99967.95
2018-05-10T07:09:00.940Z,99969.15
2018-05-10T07:10:03.509Z,99974.48
2018-05-10T07:11:06.021Z,99973.70
2018-05-10T07:12:08.509Z,99977.47
2018-05-10T07:13:11.040Z,99972.72
2018-05-10T07:14:13.510Z,99968.96
2018-05-10T07:15:16.002Z,99972.13
2018-05-10T07:16:18.490Z,99978.66
2018-05-10T07:17:20.955Z,99976.88
2018-05-10T07:18:23.418Z,99973.52
2018-05-10T07:19:25.897Z,99974.50
2018-05-10T07:20:28.365Z,99970.34
2018-05-10T07:21:30.865Z,99975.70
2018-05-10T07:22:33.377Z,99974.72
2018-05-10T07:23:35.845Z,99975.12
2018-05-10T07:24:38.349Z,99978.48
2018-05-10T07:25:40.833Z,99975.91
2018-05-10T07:26:43.325Z,99974.53
2018-05-10T07:27:45.813Z,99980.47
2018-05-10T07:28:48.280Z,99983.06
2018-05-10T07:29:50.749Z,99979.89
2018-05-10T07:30:53.244Z,99982.07
2018-05-10T07:31:55.775Z,99983.45
2018-05-10T07:32:58.268Z,99980.28
2018-05-10T07:34:00.749Z,99978.31
2018-05-10T07:35:03.240Z,99977.91
2018-05-10T07:36:05.708Z,99979.11
2018-05-10T07:37:08.235Z,99976.92
2018-05-10T07:38:10.753Z,99975.54
2018-05-10T07:39:13.247Z,99984.07
2018-05-10T07:40:15.729Z,99978.31
2018-05-10T07:41:18.227Z,99975.94
2018-05-10T07:42:20.737Z,99978.71
2018-05-10T07:43:23.226Z,99980.50
2018-05-10T07:44:25.727Z,99978.71
2018-05-10T07:45:28.213Z,99983.86
2018-05-10T07:46:30.717Z,99979.11
2018-05-10T07:47:33.230Z,99985.64
2018-05-10T07:48:35.739Z,99989.61
2018-05-10T07:49:38.225Z,99988.23
2018-05-10T07:50:40.720Z,99988.23
2018-05-10T07:51:43.205Z,99990.60
2018-05-10T07:52:45.687Z,99988.63
2018-05-10T07:53:48.177Z,99988.63
2018-05-10T07:54:50.651Z,99995.56
2018-05-10T07:55:53.157Z,99989.22
2018-05-10T07:56:55.626Z,99990.60
2018-05-10T07:57:58.130Z,99993.37
2018-05-10T07:59:00.654Z,99998.73
2018-05-10T08:00:03.216Z,99994.77
2018-05-10T08:01:05.715Z,99994.77
2018-05-10T08:02:08.214Z,100000.12
2018-05-10T08:03:10.717Z,100001.11
2018-05-10T08:04:13.225Z,99999.31
2018-05-10T08:05:15.731Z,100002.89
2018-05-10T08:06:18.210Z,100011.61
2018-05-10T08:07:20.705Z,100011.80
2018-05-10T08:08:23.216Z,100014.38
2018-05-10T08:09:25.724Z,100009.42
2018-05-10T08:10:28.221Z,100022.70
2018-05-10T08:11:30.709Z,100023.28
2018-05-10T08:12:33.202Z,100027.45
2018-05-10T08:13:35.728Z,100029.05
2018-05-10T08:14:38.213Z,100032.41
2018-05-10T08:15:40.701Z,100037.55
2018-05-10T08:16:43.170Z,100033.39
2018-05-10T08:17:45.800Z,100032.00
2018-05-10T08:18:48.343Z,100029.42
2018-05-10T08:19:50.950Z,100039.70
2018-05-10T08:20:53.443Z,100039.12
2018-05-10T08:21:55.966Z,100042.88
2018-05-10T08:22:58.439Z,100050.80
2018-05-10T08:24:02.092Z,100048.03
2018-05-10T08:25:05.873Z,100048.21
2018-05-10T08:26:11.549Z,100040.30
2018-05-10T08:27:14.712Z,100038.91
2018-05-10T08:28:17.362Z,100051.39
2018-05-10T08:29:19.883Z,100052.38
2018-05-10T08:30:22.408Z,100050.19
2018-05-10T08:31:25.386Z,100055.14
2018-05-10T08:32:27.917Z,100054.56
2018-05-10T08:33:32.383Z,100050.00
2018-05-10T08:34:35.459Z,100053.17
2018-05-10T08:35:38.029Z,100047.04
2018-05-10T08:36:40.594Z,100052.19
2018-05-10T08:37:43.009Z,100052.77
2018-05-10T08:38:46.608Z,100048.03
2018-05-10T08:39:49.277Z,100045.84
2018-05-10T08:40:51.849Z,100057.92
2018-05-10T08:41:55.864Z,100062.66
2018-05-10T08:42:58.474Z,100060.87
2018-05-10T08:44:01.999Z,100060.87
2018-05-10T08:45:04.666Z,100067.41
2018-05-10T08:46:07.145Z,100063.25
2018-05-10T08:47:09.629Z,100072.16
2018-05-10T08:48:12.130Z,100076.31
2018-05-10T08:49:14.599Z,100074.13
2018-05-10T08:50:17.301Z,100080.66
2018-05-10T08:51:20.206Z,100085.80
2018-05-10T08:52:23.005Z,100084.60
2018-05-10T08:53:25.521Z,100091.34
2018-05-10T08:54:28.157Z,100096.09
2018-05-10T08:55:37.360Z,100102.03
2018-05-10T08:56:39.933Z,100103.42
2018-05-10T08:57:43.455Z,100099.66
2018-05-10T08:58:45.997Z,100100.65
2018-05-10T08:59:48.761Z,100104.41
2018-05-10T09:00:51.493Z,100108.97
2018-05-10T09:01:54.919Z,100113.12
2018-05-10T09:02:57.558Z,100110.35
2018-05-10T09:04:01.815Z,100107.98
2018-05-10T09:05:04.329Z,100108.97
2018-05-10T09:06:06.837Z,100113.73
2018-05-10T09:07:09.738Z,100117.09
2018-05-10T09:08:13.082Z,100117.50
2018-05-10T09:09:16.042Z,100117.50
2018-05-10T09:10:20.052Z,100114.33
2018-05-10T09:11:22.966Z,100117.50
2018-05-10T09:12:26.387Z,100115.71
2018-05-10T09:13:28.899Z,100120.27
2018-05-10T09:14:31.457Z,100117.50
2018-05-10T09:15:33.967Z,100119.69
2018-05-10T09:16:36.458Z,100119.28
2018-05-10T09:17:39.029Z,100121.66
2018-05-10T09:18:41.503Z,100123.84
2018-05-10T09:19:44.004Z,100124.24
2018-05-10T09:20:46.566Z,100123.25
2018-05-10T09:21:49.045Z,100125.63
2018-05-10T09:22:51.556Z,100119.50
2018-05-10T09:23:54.045Z,100120.48
2018-05-10T09:24:56.571Z,100128.22
2018-05-10T09:25:59.136Z,100129.60
2018-05-10T09:27:01.617Z,100126.83
2018-05-10T09:28:04.120Z,100131.60
2018-05-10T09:29:06.665Z,100137.33
2018-05-10T09:30:09.143Z,100132.19
2018-05-10T09:31:11.611Z,100141.31
2018-05-10T09:32:14.122Z,100145.06
2018-05-10T09:33:16.590Z,100145.47
2018-05-10T09:34:19.067Z,100144.27
2018-05-10T09:35:21.552Z,100144.67
2018-05-10T09:36:24.022Z,100147.62
2018-05-10T09:37:26.527Z,100153.17
2018-05-10T09:38:29.016Z,100155.54
2018-05-10T09:39:31.560Z,100160.69
2018-05-10T09:40:34.011Z,100166.23
2018-05-10T09:41:36.520Z,100166.81
2018-05-10T09:42:39.096Z,100172.36
2018-05-10T09:43:41.597Z,100172.36
2018-05-10T09:44:44.074Z,100177.91
2018-05-10T09:45:46.586Z,100173.94
2018-05-10T09:46:49.089Z,100175.91
2018-05-10T09:47:51.611Z,100179.48
2018-05-10T09:48:54.184Z,100174.12
2018-05-10T09:49:56.681Z,100178.28
2018-05-10T09:50:59.145Z,100185.61
2018-05-10T09:52:01.632Z,100182.44
2018-05-10T09:53:04.170Z,100183.42
2018-05-10T09:54:06.663Z,100186.37
2018-05-10T09:55:09.157Z,100188.56
2018-05-10T09:56:11.663Z,100185.00
2018-05-10T09:57:14.153Z,100191.52
2018-05-10T09:58:16.638Z,100194.11
2018-05-10T09:59:19.130Z,100198.27
2018-05-10T10:00:27.256Z,100203.41
2018-05-10T10:01:29.734Z,100204.80
2018-05-10T10:02:32.241Z,100199.25
2018-05-10T10:03:34.762Z,100206.37
2018-05-10T10:04:37.238Z,100210.34
2018-05-10T10:05:39.712Z,100208.56
2018-05-10T10:06:42.206Z,100205.39
2018-05-10T10:07:44.701Z,100203.60
2018-05-10T10:08:47.336Z,100210.93
2018-05-10T10:09:49.815Z,100208.16
2018-05-10T10:10:52.298Z,100216.48
2018-05-10T10:11:54.781Z,100206.19
2018-05-10T10:12:57.342Z,100210.93
2018-05-10T10:13:59.853Z,100216.87
2018-05-10T10:15:02.417Z,100226.18
2018-05-10T10:16:04.939Z,100225.78
2018-05-10T10:17:07.449Z,100241.03
2018-05-10T10:18:09.942Z,100233.11
2018-05-10T10:19:12.449Z,100240.81
2018-05-10T10:20:14.923Z,100242.59
2018-05-10T10:21:17.397Z,100241.39
2018-05-10T10:22:19.868Z,100241.36
2018-05-10T10:23:22.339Z,100246.91
2018-05-10T10:24:24.842Z,100252.64
2018-05-10T10:25:27.340Z,100250.39
2018-05-10T10:26:29.832Z,100249.98
2018-05-10T10:27:32.363Z,100245.18
2018-05-10T10:28:34.867Z,100257.80
2018-05-10T10:29:37.387Z,100259.95
2018-05-10T10:30:39.894Z,100260.14
2018-05-10T10:31:42.415Z,100264.08
2018-05-10T10:32:44.961Z,100258.66
2018-05-10T10:33:47.529Z,100258.03
2018-05-10T10:34:50.036Z,100269.83
2018-05-10T10:35:52.538Z,100271.58
2018-05-10T10:36:55.011Z,100275.12
2018-05-10T10:37:57.505Z,100279.23
2018-05-10T10:38:59.993Z,100275.45
2018-05-10T10:40:02.536Z,100285.88
2018-05-10T10:41:05.047Z,100284.35
2018-05-10T10:42:07.556Z,100282.86
2018-05-10T10:43:10.193Z,100288.25
2018-05-10T10:44:12.709Z,100289.93
2018-05-10T10:45:15.213Z,100287.85
2018-05-10T10:46:17.738Z,100291.49
2018-05-10T10:47:20.240Z,100292.22
2018-05-10T10:48:22.729Z,100298.34
2018-05-10T10:49:25.206Z,100303.66
2018-05-10T10:50:27.757Z,100301.79
2018-05-10T10:51:30.263Z,100301.50
2018-05-10T10:52:32.734Z,100303.06
2018-05-10T10:53:35.217Z,100301.68
2018-05-10T10:54:37.918Z,100306.23
2018-05-10T10:55:40.460Z,100304.09
2018-05-10T10:56:43.034Z,100310.02
2018-05-10T10:57:45.593Z,100306.49
2018-05-10T10:58:48.153Z,100310.64
2018-05-10T10:59:50.657Z,100312.10
2018-05-10T11:00:53.175Z,100315.97
2018-05-10T11:01:55.677Z,100318.25
2018-05-10T11:02:58.186Z,100314.23
2018-05-10T11:04:00.667Z,100322.07
2018-05-10T11:05:03.151Z,100323.45
2018-05-10T11:06:05.694Z,100322.88
2018-05-10T11:07:08.170Z,100323.05
2018-05-10T11:08:10.662Z,100325.56
2018-05-10T11:09:13.283Z,100321.59
2018-05-10T11:10:16.517Z,100323.64
2018-05-10T11:11:19.025Z,100329.31
2018-05-10T11:12:21.525Z,100325.77
2018-05-10T11:13:24.031Z,100327.22
2018-05-10T11:14:26.525Z,100336.56
2018-05-10T11:15:28.999Z,100331.74
2018-05-10T11:16:31.506Z,100335.27
2018-05-10T11:17:33.978Z,100342.19
2018-05-10T11:18:36.451Z,100335.05
2018-05-10T11:19:38.964Z,100331.92
2018-05-10T11:20:41.614Z,100336.11
2018-05-10T11:21:44.151Z,100334.51
2018-05-10T11:22:46.649Z,100336.52
2018-05-10T11:23:49.155Z,100336.20
2018-05-10T11:24:51.747Z,100340.89
2018-05-10T11:25:54.258Z,100337.72
2018-05-10T11:26:56.793Z,100347.01
2018-05-10T11:27:59.326Z,100340.58
2018-05-10T11:29:02.204Z,100349.46
2018-05-10T11:30:05.162Z,100349.79
2018-05-10T11:31:08.132Z,100348.98
2018-05-10T11:32:10.693Z,100356.48
2018-05-10T11:33:13.257Z,100352.91
2018-05-10T11:34:15.810Z,100352.33
2018-05-10T11:35:18.321Z,100357.11
2018-05-10T11:36:20.832Z,100351.88
2018-05-10T11:37:23.350Z,100361.55
2018-05-10T11:38:25.831Z,100362.77
2018-05-10T11:39:28.323Z,100361.78
2018-05-10T11:40:30.825Z,100366.78
2018-05-10T11:41:33.338Z,100365.84
2018-05-10T11:42:35.880Z,100370.08
2018-05-10T11:43:38.359Z,100364.55
2018-05-10T11:44:40.842Z,100374.86
2018-05-10T11:45:43.359Z,100378.33
2018-05-10T11:46:45.857Z,100376.10
2018-05-10T11:47:48.386Z,100382.34
2018-05-10T11:48:50.891Z,100376.94
2018-05-10T11:49:53.389Z,100391.51
2018-05-10T11:50:55.863Z,100384.14
2018-05-10T11:51:58.339Z,100386.55
2018-05-10T11:53:00.871Z,100386.37
2018-05-10T11:54:03.383Z,100384.72
2018-05-10T11:55:05.953Z,100386.91
2018-05-10T11:56:08.431Z,100394.41
2018-05-10T11:57:10.933Z,100388.30
2018-05-10T11:58:13.465Z,100393.78
2018-05-10T11:59:15.977Z,100386.46
2018-05-10T12:00:18.487Z,100393.02
2018-05-10T12:01:20.985Z,100397.63
2018-05-10T12:02:23.484Z,100396.72
2018-05-10T12:03:26.000Z,100394.80
2018-05-10T12:04:29.092Z,100395.06
2018-05-10T12:05:31.709Z,100394.34
2018-05-10T12:06:34.547Z,100388.27
2018-05-10T12:07:37.046Z,100394.25
2018-05-10T12:08:39.542Z,100389.19
2018-05-10T12:09:42.015Z,100397.77
2018-05-10T12:10:44.520Z,100391.28
2018-05-10T12:11:46.995Z,100398.28